createdAt,value
2023-03-10T00:01:21.828Z,9.70
2023-03-10T00:03:49.916Z,13.00
2023-03-10T00:06:19.748Z,9.73
2023-03-10T00:08:47.186Z,11.37
2023-03-10T00:11:14.873Z,10.77
2023-03-10T00:13:42.242Z,7.90
2023-03-10T00:16:16.524Z,11.17
2023-03-10T00:18:43.664Z,8.50
2023-03-10T00:21:15.802Z,9.13
2023-03-10T00:23:42.997Z,8.97
2023-03-10T00:26:13.475Z,8.43
2023-03-10T00:28:40.913Z,10.30
2023-03-10T00:31:12.704Z,15.20
2023-03-10T00:33:39.868Z,8.63
2023-03-10T00:36:21.775Z,9.33
2023-03-10T00:38:51.116Z,11.43
2023-03-10T00:41:23.470Z,8.87
2023-03-10T00:43:51.514Z,6.70
2023-03-10T00:46:19.854Z,7.60
2023-03-10T00:48:46.980Z,7.40
2023-03-10T00:51:14.228Z,8.40
2023-03-10T00:53:41.783Z,8.50
2023-03-10T00:56:25.901Z,6.97
2023-03-10T00:58:56.136Z,5.90
2023-03-10T01:01:29.612Z,7.07
2023-03-10T01:04:01.511Z,7.13
2023-03-10T01:06:29.411Z,7.03
2023-03-10T01:08:56.769Z,10.63
2023-03-10T01:11:27.008Z,7.57
2023-03-10T01:13:57.235Z,8.57
2023-03-10T01:16:24.887Z,11.47
2023-03-10T01:18:51.936Z,7.00
2023-03-10T01:21:24.492Z,8.33
2023-03-10T01:23:51.913Z,8.23
2023-03-10T01:26:19.621Z,8.37
2023-03-10T01:28:48.802Z,11.23
2023-03-10T01:31:17.547Z,8.63
2023-03-10T01:33:45.755Z,6.13
2023-03-10T01:36:19.705Z,6.97
2023-03-10T01:38:51.107Z,5.23
2023-03-10T01:41:18.852Z,7.20
2023-03-10T01:43:48.408Z,9.53
2023-03-10T01:46:39.971Z,7.33
2023-03-10T01:49:17.581Z,5.83
2023-03-10T01:51:50.835Z,4.77
2023-03-10T01:54:23.578Z,5.20
2023-03-10T01:56:52.279Z,7.87
2023-03-10T01:59:20.838Z,4.97
2023-03-10T02:01:50.487Z,5.33
2023-03-10T02:04:47.287Z,7.90
2023-03-10T02:07:18.861Z,5.57
2023-03-10T02:09:49.062Z,6.07
2023-03-10T02:12:16.958Z,6.50
2023-03-10T02:14:46.626Z,6.30
2023-03-10T02:17:17.281Z,5.17
2023-03-10T02:20:06.185Z,4.10
2023-03-10T02:22:33.272Z,6.23
2023-03-10T02:25:12.179Z,5.10
2023-03-10T02:27:40.327Z,6.93
2023-03-10T02:30:11.762Z,5.67
2023-03-10T02:32:42.656Z,4.80
2023-03-10T02:35:10.743Z,4.70
2023-03-10T02:37:46.367Z,6.07
2023-03-10T02:40:35.011Z,6.13
2023-03-10T02:43:16.793Z,5.70
2023-03-10T02:45:46.878Z,7.60
2023-03-10T02:48:20.354Z,4.40
2023-03-10T02:50:48.109Z,4.23
2023-03-10T02:53:19.510Z,4.70
2023-03-10T02:55:48.849Z,5.00
2023-03-10T02:58:16.434Z,4.97
2023-03-10T03:00:46.225Z,4.13
2023-03-10T03:03:16.959Z,5.10
2023-03-10T03:05:45.950Z,3.57
2023-03-10T03:08:13.997Z,4.83
2023-03-10T03:10:42.177Z,7.50
2023-03-10T03:13:10.784Z,4.10
2023-03-10T03:15:38.510Z,3.90
2023-03-10T03:18:05.934Z,4.87
2023-03-10T03:20:36.842Z,4.10
2023-03-10T03:23:04.277Z,4.60
2023-03-10T03:25:36.188Z,5.40
2023-03-10T03:28:03.577Z,3.53
2023-03-10T03:30:30.956Z,4.23
2023-03-10T03:32:59.416Z,4.83
2023-03-10T03:35:30.846Z,6.77
2023-03-10T03:37:58.547Z,3.93
2023-03-10T03:40:27.939Z,4.00
2023-03-10T03:42:58.171Z,4.30
2023-03-10T03:45:27.734Z,6.53
2023-03-10T03:47:56.493Z,5.47
2023-03-10T03:50:25.598Z,3.17
2023-03-10T03:52:55.761Z,3.20
2023-03-10T03:55:25.319Z,3.80
2023-03-10T03:57:53.010Z,3.60
2023-03-10T04:00:22.921Z,4.67
2023-03-10T04:02:56.431Z,2.88
2023-03-10T04:05:24.068Z,3.43
2023-03-10T04:07:51.321Z,3.93
2023-03-10T04:10:23.854Z,4.13
2023-03-10T04:12:51.148Z,3.03
2023-03-10T04:15:18.286Z,4.23
2023-03-10T04:17:45.307Z,5.73
2023-03-10T04:20:15.799Z,4.80
2023-03-10T04:22:46.810Z,5.90
2023-03-10T04:25:14.736Z,3.53
2023-03-10T04:27:41.900Z,4.47
2023-03-10T04:30:12.331Z,3.30
2023-03-10T04:32:41.244Z,4.93
2023-03-10T04:35:12.844Z,4.93
2023-03-10T04:37:41.587Z,4.83
2023-03-10T04:40:12.874Z,3.80
2023-03-10T04:42:41.242Z,4.83
2023-03-10T04:45:09.044Z,4.73
2023-03-10T04:47:36.119Z,4.43
2023-03-10T04:50:04.096Z,4.50
2023-03-10T04:52:31.211Z,4.13
2023-03-10T04:54:58.355Z,6.40
2023-03-10T04:57:25.309Z,6.30
2023-03-10T04:59:53.605Z,5.97
2023-03-10T05:02:21.925Z,5.93
2023-03-10T05:04:49.176Z,7.77
2023-03-10T05:07:16.414Z,5.90
2023-03-10T05:09:48.751Z,6.23
2023-03-10T05:12:15.944Z,5.83
2023-03-10T05:14:43.077Z,6.53
2023-03-10T05:17:11.269Z,6.33
2023-03-10T05:19:39.067Z,4.83
2023-03-10T05:22:07.711Z,5.60
2023-03-10T05:24:37.405Z,6.40
2023-03-10T05:27:04.874Z,7.33
2023-03-10T05:29:37.956Z,6.60
2023-03-10T05:32:11.627Z,4.97
2023-03-10T05:34:40.605Z,6.37
2023-03-10T05:37:07.988Z,4.80
2023-03-10T05:39:34.982Z,5.77
2023-03-10T05:42:06.371Z,8.13
2023-03-10T05:44:34.969Z,5.93
2023-03-10T05:47:04.363Z,4.73
2023-03-10T05:49:31.967Z,7.63
2023-03-10T05:51:59.442Z,6.83
2023-03-10T05:54:26.613Z,6.93
2023-03-10T05:56:53.743Z,4.93
2023-03-10T05:59:23.914Z,7.37
2023-03-10T06:01:52.215Z,11.00
2023-03-10T06:04:19.790Z,5.67
2023-03-10T06:06:46.940Z,6.13
2023-03-10T06:09:13.904Z,5.20
2023-03-10T06:11:40.877Z,6.07
2023-03-10T06:14:07.929Z,5.40
2023-03-10T06:16:35.054Z,5.60
2023-03-10T06:19:02.114Z,6.57
2023-03-10T06:21:31.823Z,8.23
2023-03-10T06:23:59.542Z,7.30
2023-03-10T06:26:26.775Z,5.97
2023-03-10T06:28:53.674Z,6.63
2023-03-10T06:31:24.991Z,7.97
2023-03-10T06:33:52.855Z,6.47
2023-03-10T06:36:21.480Z,7.17
2023-03-10T06:38:49.577Z,7.50
2023-03-10T06:41:17.129Z,8.73
2023-03-10T06:43:44.131Z,8.00
2023-03-10T06:46:11.938Z,8.13
2023-03-10T06:48:40.076Z,6.37
2023-03-10T06:51:18.918Z,7.57
2023-03-10T06:53:46.913Z,7.47
2023-03-10T06:56:16.915Z,8.07
2023-03-10T06:58:44.940Z,14.03
2023-03-10T07:01:22.634Z,5.20
2023-03-10T07:03:49.692Z,8.20
2023-03-10T07:06:16.735Z,8.90
2023-03-10T07:08:43.799Z,9.43
2023-03-10T07:11:11.144Z,5.45
2023-03-10T07:13:38.823Z,8.30
2023-03-10T07:16:06.169Z,7.32
2023-03-10T07:18:33.579Z,7.85
2023-03-10T07:21:00.504Z,7.50
2023-03-10T07:23:27.756Z,8.30
2023-03-10T07:25:56.766Z,6.18
2023-03-10T07:28:24.892Z,9.13
2023-03-10T07:30:52.462Z,7.85
2023-03-10T07:33:19.502Z,6.90
2023-03-10T07:35:46.635Z,7.22
2023-03-10T07:38:13.772Z,6.63
2023-03-10T07:40:40.916Z,7.13
2023-03-10T07:43:07.867Z,7.65
2023-03-10T07:45:35.706Z,6.47
2023-03-10T07:48:02.647Z,5.80
2023-03-10T07:50:29.680Z,5.60
2023-03-10T07:52:56.892Z,5.85
2023-03-10T07:55:23.960Z,6.05
2023-03-10T07:57:51.681Z,6.93
2023-03-10T08:00:18.944Z,5.60
2023-03-10T08:02:45.961Z,6.63
2023-03-10T08:05:14.872Z,5.30
2023-03-10T08:07:43.725Z,6.18
2023-03-10T08:10:12.515Z,6.65
2023-03-10T08:12:41.536Z,7.57
2023-03-10T08:15:09.322Z,4.60
2023-03-10T08:17:37.143Z,6.97
2023-03-10T08:20:06.816Z,6.55
2023-03-10T08:22:34.572Z,5.35
2023-03-10T08:25:02.225Z,5.20
2023-03-10T08:27:30.456Z,6.25
2023-03-10T08:29:57.449Z,8.13
2023-03-10T08:32:24.528Z,5.63
2023-03-10T08:34:51.621Z,6.07
2023-03-10T08:37:18.873Z,5.80
2023-03-10T08:39:46.605Z,8.18
2023-03-10T08:42:14.216Z,5.13
2023-03-10T08:44:41.951Z,9.57
2023-03-10T08:47:11.847Z,7.40
2023-03-10T08:49:39.079Z,5.43
2023-03-10T08:52:06.319Z,5.38
2023-03-10T08:54:33.893Z,5.30
2023-03-10T08:57:01.303Z,6.97
2023-03-10T08:59:28.504Z,5.00
2023-03-10T09:01:55.450Z,5.10
2023-03-10T09:04:22.858Z,5.53
2023-03-10T09:06:49.808Z,9.73
2023-03-10T09:09:16.799Z,6.33
2023-03-10T09:11:44.121Z,7.63
2023-03-10T09:14:12.125Z,5.13
2023-03-10T09:16:40.428Z,4.77
2023-03-10T09:19:08.164Z,6.03
2023-03-10T09:21:35.384Z,5.87
2023-03-10T09:24:03.045Z,6.40
2023-03-10T09:26:30.452Z,5.17
2023-03-10T09:28:57.593Z,5.13
2023-03-10T09:31:35.892Z,4.37
2023-03-10T09:34:03.504Z,4.67
2023-03-10T09:36:30.407Z,5.40
2023-03-10T09:38:58.979Z,5.73
2023-03-10T09:42:03.541Z,5.43
2023-03-10T09:44:45.530Z,4.60
2023-03-10T09:48:05.031Z,4.03
2023-03-10T09:50:44.619Z,4.83
2023-03-10T09:53:30.120Z,3.93
2023-03-10T09:55:57.891Z,5.40
2023-03-10T09:58:39.439Z,5.20
2023-03-10T10:01:13.291Z,7.17
2023-03-10T10:03:52.616Z,4.03
2023-03-10T10:06:32.631Z,4.00
2023-03-10T10:09:05.535Z,7.63
2023-03-10T10:11:34.979Z,5.03
2023-03-10T10:14:29.330Z,4.20
2023-03-10T10:17:06.480Z,5.43
2023-03-10T10:19:36.864Z,4.00
2023-03-10T10:22:16.114Z,4.73
2023-03-10T10:25:00.517Z,9.97
2023-03-10T10:27:27.445Z,5.23
2023-03-10T10:29:54.408Z,4.33
2023-03-10T10:32:21.476Z,5.37
2023-03-10T10:34:49.407Z,9.07
2023-03-10T10:37:38.801Z,4.63
2023-03-10T10:40:24.607Z,3.70
2023-03-10T10:42:56.967Z,4.83
2023-03-10T10:45:36.988Z,4.63
2023-03-10T10:48:05.133Z,4.77
2023-03-10T10:50:34.688Z,3.87
2023-03-10T10:53:13.983Z,4.20
2023-03-10T10:55:42.859Z,5.10
2023-03-10T10:58:31.408Z,4.50
2023-03-10T11:01:02.426Z,9.63
2023-03-10T11:03:33.069Z,4.20
2023-03-10T11:06:01.347Z,4.90
2023-03-10T11:08:43.093Z,8.23
2023-03-10T11:11:29.540Z,5.20
2023-03-10T11:14:17.456Z,3.67
2023-03-10T11:17:00.182Z,4.67
2023-03-10T11:19:33.074Z,3.77
2023-03-10T11:22:07.731Z,4.07
2023-03-10T11:24:47.549Z,4.00
2023-03-10T11:27:19.939Z,6.00
2023-03-10T11:30:11.708Z,3.57
2023-03-10T11:33:05.829Z,5.37
2023-03-10T11:35:43.965Z,4.23
2023-03-10T11:38:38.019Z,3.57
2023-03-10T11:41:16.245Z,3.47
2023-03-10T11:44:00.029Z,4.93
2023-03-10T11:46:44.619Z,4.47
2023-03-10T11:49:15.166Z,5.00
2023-03-10T11:51:44.846Z,3.10
2023-03-10T11:54:26.351Z,3.57
2023-03-10T11:56:54.657Z,3.40
2023-03-10T11:59:29.287Z,5.13
2023-03-10T12:02:17.934Z,4.53
2023-03-10T12:05:00.284Z,8.40
2023-03-10T12:07:34.681Z,3.87
2023-03-10T12:10:10.496Z,3.70
2023-03-10T12:12:44.920Z,3.67
2023-03-10T12:15:19.559Z,4.60
2023-03-10T12:17:49.220Z,4.43
2023-03-10T12:20:19.174Z,3.47
2023-03-10T12:22:50.364Z,5.73
2023-03-10T12:25:30.456Z,3.77
2023-03-10T12:28:16.698Z,4.87
2023-03-10T12:30:48.549Z,4.00
2023-03-10T12:33:44.207Z,5.07
2023-03-10T12:36:32.062Z,4.60
2023-03-10T12:39:01.254Z,3.70
2023-03-10T12:41:30.873Z,4.27
2023-03-10T12:44:32.575Z,3.93
2023-03-10T12:47:08.770Z,3.13
2023-03-10T12:49:41.994Z,3.63
2023-03-10T12:52:31.633Z,3.33
2023-03-10T12:55:24.571Z,4.53
2023-03-10T12:57:58.300Z,3.78
2023-03-10T13:00:31.615Z,4.25
2023-03-10T13:03:05.407Z,3.13
2023-03-10T13:05:35.875Z,4.67
2023-03-10T13:08:12.475Z,3.30
2023-03-10T13:10:40.473Z,3.10
2023-03-10T13:13:14.627Z,4.40
2023-03-10T13:15:41.685Z,5.13
2023-03-10T13:18:21.872Z,5.80
2023-03-10T13:20:54.598Z,3.83
2023-03-10T13:23:35.487Z,5.07
2023-03-10T13:26:02.989Z,5.30
2023-03-10T13:28:35.683Z,5.53
2023-03-10T13:31:20.331Z,4.00
2023-03-10T13:33:53.280Z,3.60
2023-03-10T13:36:34.214Z,4.23
2023-03-10T13:39:04.648Z,4.03
2023-03-10T13:41:37.736Z,3.20
2023-03-10T13:44:04.825Z,6.33
2023-03-10T13:46:34.190Z,5.00
2023-03-10T13:49:07.652Z,4.67
2023-03-10T13:51:37.109Z,4.67
2023-03-10T13:54:21.635Z,3.97
2023-03-10T13:57:16.791Z,4.55
2023-03-10T13:59:44.440Z,4.43
2023-03-10T14:02:18.428Z,4.07
2023-03-10T14:04:52.714Z,4.07
2023-03-10T14:07:30.841Z,4.20
2023-03-10T14:10:03.964Z,4.57
2023-03-10T14:12:48.201Z,3.83
2023-03-10T14:15:15.074Z,4.20
2023-03-10T14:17:43.624Z,3.47
2023-03-10T14:20:12.974Z,3.30
2023-03-10T14:22:43.373Z,3.17
2023-03-10T14:25:21.317Z,4.07
2023-03-10T14:27:59.793Z,5.27
2023-03-10T14:30:31.732Z,4.30
2023-03-10T14:33:01.107Z,3.50
2023-03-10T14:35:30.240Z,3.33
2023-03-10T14:37:57.869Z,8.47
2023-03-10T14:40:26.460Z,4.13
2023-03-10T14:43:01.564Z,3.17
2023-03-10T14:45:34.771Z,7.70
2023-03-10T14:48:27.045Z,5.13
2023-03-10T14:51:05.270Z,3.38
2023-03-10T14:53:36.650Z,3.40
2023-03-10T14:56:04.617Z,5.77
2023-03-10T14:58:35.547Z,5.53
2023-03-10T15:01:10.205Z,3.50
2023-03-10T15:03:38.375Z,5.97
2023-03-10T15:06:06.241Z,4.43
2023-03-10T15:08:34.088Z,6.37
2023-03-10T15:11:02.032Z,5.07
2023-03-10T15:13:29.540Z,5.53
2023-03-10T15:15:56.620Z,4.63
2023-03-10T15:18:27.319Z,7.47
2023-03-10T15:20:59.099Z,4.53
2023-03-10T15:23:30.469Z,5.37
2023-03-10T15:26:09.473Z,4.20
2023-03-10T15:28:37.729Z,5.00
2023-03-10T15:31:05.805Z,5.70
2023-03-10T15:33:34.480Z,5.67
2023-03-10T15:36:01.754Z,3.50
2023-03-10T15:38:29.153Z,7.17
2023-03-10T15:40:57.790Z,6.70
2023-03-10T15:43:25.156Z,4.57
2023-03-10T15:45:52.315Z,4.87
2023-03-10T15:48:19.349Z,3.87
2023-03-10T15:50:49.730Z,4.07
2023-03-10T15:53:16.691Z,5.60
2023-03-10T15:55:43.822Z,8.90
2023-03-10T15:58:11.483Z,5.53
2023-03-10T16:00:38.592Z,5.23
2023-03-10T16:03:05.710Z,5.83
2023-03-10T16:05:32.794Z,6.50
2023-03-10T16:07:59.742Z,10.10
2023-03-10T16:10:26.943Z,4.63
2023-03-10T16:12:53.857Z,6.17
2023-03-10T16:15:20.899Z,7.97
2023-03-10T16:17:47.943Z,4.87
2023-03-10T16:20:16.973Z,4.53
2023-03-10T16:22:43.961Z,3.90
2023-03-10T16:25:17.138Z,4.33
2023-03-10T16:27:45.381Z,6.43
2023-03-10T16:30:14.618Z,4.20
2023-03-10T16:32:45.528Z,5.43
2023-03-10T16:35:12.447Z,5.10
2023-03-10T16:37:39.569Z,6.60
2023-03-10T16:40:07.893Z,7.60
2023-03-10T16:42:35.930Z,15.43
2023-03-10T16:45:04.590Z,6.90
2023-03-10T16:47:31.893Z,8.13
2023-03-10T16:49:58.953Z,5.30
2023-03-10T16:52:25.837Z,7.73
2023-03-10T16:54:58.124Z,7.23
2023-03-10T16:57:25.284Z,6.70
2023-03-10T16:59:52.301Z,6.87
2023-03-10T17:02:19.285Z,7.73
2023-03-10T17:04:46.387Z,7.27
2023-03-10T17:07:14.328Z,8.43
2023-03-10T17:09:41.352Z,11.00
2023-03-10T17:12:08.529Z,5.20
2023-03-10T17:14:35.514Z,6.13
2023-03-10T17:17:02.606Z,6.53
2023-03-10T17:19:30.373Z,6.80
2023-03-10T17:21:58.530Z,7.97
2023-03-10T17:24:26.090Z,7.47
2023-03-10T17:26:53.617Z,6.37
2023-03-10T17:29:27.345Z,4.93
2023-03-10T17:31:54.300Z,8.30
2023-03-10T17:34:21.308Z,7.87
2023-03-10T17:36:51.725Z,13.03
2023-03-10T17:39:21.282Z,9.00
2023-03-10T17:41:49.213Z,7.27
2023-03-10T17:44:16.990Z,5.27
2023-03-10T17:46:44.089Z,5.67
2023-03-10T17:49:15.850Z,5.03
2023-03-10T17:51:44.532Z,5.13
2023-03-10T17:54:13.925Z,4.87
2023-03-10T17:56:41.081Z,5.33
2023-03-10T17:59:12.768Z,6.20
2023-03-10T18:01:40.379Z,8.30
2023-03-10T18:04:07.694Z,5.53
2023-03-10T18:06:36.142Z,10.00
2023-03-10T18:09:07.369Z,6.77
2023-03-10T18:11:35.092Z,7.73
2023-03-10T18:14:03.783Z,6.20
2023-03-10T18:16:33.863Z,9.57
2023-03-10T18:19:01.169Z,8.10
2023-03-10T18:21:28.675Z,7.23
2023-03-10T18:23:56.130Z,5.70
2023-03-10T18:26:27.481Z,8.80
2023-03-10T18:28:54.715Z,6.53
2023-03-10T18:31:24.460Z,7.80
2023-03-10T18:33:51.910Z,8.07
2023-03-10T18:36:20.147Z,6.17
2023-03-10T18:38:48.235Z,5.43
2023-03-10T18:41:19.812Z,5.63
2023-03-10T18:43:47.303Z,6.80
2023-03-10T18:46:14.647Z,11.77
2023-03-10T18:48:41.903Z,9.83
2023-03-10T18:51:10.331Z,5.97
2023-03-10T18:53:38.010Z,7.43
2023-03-10T18:56:05.882Z,7.40
2023-03-10T18:58:33.247Z,8.87
2023-03-10T19:01:00.367Z,7.37
2023-03-10T19:03:31.233Z,8.00
2023-03-10T19:06:01.564Z,9.80
2023-03-10T19:08:28.453Z,8.10
2023-03-10T19:10:57.535Z,9.83
2023-03-10T19:13:26.231Z,7.97
2023-03-10T19:15:53.388Z,10.97
2023-03-10T19:18:21.277Z,8.27
2023-03-10T19:20:48.269Z,6.67
2023-03-10T19:23:15.390Z,9.50
2023-03-10T19:25:42.902Z,7.03
2023-03-10T19:28:10.053Z,6.60
2023-03-10T19:30:37.126Z,8.60
2023-03-10T19:33:04.225Z,6.57
2023-03-10T19:35:31.349Z,8.10
2023-03-10T19:37:58.287Z,10.47
2023-03-10T19:40:25.313Z,7.47
2023-03-10T19:42:52.547Z,6.53
2023-03-10T19:45:19.824Z,9.90
2023-03-10T19:47:47.387Z,8.83
2023-03-10T19:50:17.277Z,7.90
2023-03-10T19:52:45.818Z,8.27
2023-03-10T19:55:19.857Z,5.83
2023-03-10T19:57:51.040Z,7.03
2023-03-10T20:00:31.186Z,6.97
2023-03-10T20:02:58.803Z,5.97
2023-03-10T20:05:27.009Z,8.17
2023-03-10T20:07:54.260Z,10.13
2023-03-10T20:10:21.122Z,7.90
2023-03-10T20:12:48.165Z,7.87
2023-03-10T20:15:15.189Z,8.80
2023-03-10T20:17:42.261Z,8.53
2023-03-10T20:20:10.954Z,11.10
2023-03-10T20:22:47.885Z,8.77
2023-03-10T20:27:43.983Z,6.17
2023-03-10T20:30:19.184Z,10.60
2023-03-10T20:32:46.377Z,6.10
2023-03-10T20:35:14.776Z,6.30
2023-03-10T20:37:51.738Z,6.20
2023-03-10T20:40:24.017Z,6.87
2023-03-10T20:42:52.388Z,6.87
2023-03-10T20:45:19.440Z,7.93
2023-03-10T20:47:48.116Z,8.87
2023-03-10T20:50:16.392Z,6.57
2023-03-10T20:52:44.431Z,12.93
2023-03-10T20:55:20.856Z,7.40
2023-03-10T20:57:49.587Z,7.88
2023-03-10T21:00:19.395Z,7.70
2023-03-10T21:02:47.850Z,8.00
2023-03-10T21:05:15.472Z,7.03
2023-03-10T21:07:42.779Z,6.87
2023-03-10T21:10:12.397Z,7.90
2023-03-10T21:12:40.657Z,9.87
2023-03-10T21:15:09.467Z,7.40
2023-03-10T21:17:36.688Z,8.73
2023-03-10T21:20:08.216Z,8.83
2023-03-10T21:22:36.871Z,6.17
2023-03-10T21:25:06.943Z,7.83
2023-03-10T21:27:35.640Z,7.53
2023-03-10T21:30:08.097Z,7.37
2023-03-10T21:32:35.029Z,7.20
2023-03-10T21:35:02.664Z,8.10
2023-03-10T21:37:47.548Z,10.62
2023-03-10T21:40:18.178Z,9.50
2023-03-10T21:42:45.941Z,8.63
2023-03-10T21:45:18.996Z,7.13
2023-03-10T21:47:46.420Z,8.00
2023-03-10T21:50:15.585Z,11.77
2023-03-10T21:52:42.619Z,7.13
2023-03-10T21:55:17.943Z,10.67
2023-03-10T21:57:45.040Z,7.77
2023-03-10T22:00:12.924Z,10.90
2023-03-10T22:02:40.083Z,9.10
2023-03-10T22:05:07.494Z,9.10
2023-03-10T22:07:34.652Z,9.20
2023-03-10T22:10:01.762Z,11.33
2023-03-10T22:12:30.472Z,6.77
2023-03-10T22:14:57.910Z,7.77
2023-03-10T22:17:26.335Z,9.07
2023-03-10T22:19:56.881Z,9.33
2023-03-10T22:22:23.895Z,7.47
2023-03-10T22:24:50.998Z,7.53
2023-03-10T22:27:18.011Z,6.63
2023-03-10T22:29:45.976Z,13.50
2023-03-10T22:32:13.061Z,9.63
2023-03-10T22:34:40.130Z,10.67
2023-03-10T22:37:06.984Z,9.20
2023-03-10T22:39:33.951Z,10.90
2023-03-10T22:42:01.007Z,12.97
2023-03-10T22:44:28.042Z,11.17
2023-03-10T22:46:55.051Z,8.23
2023-03-10T22:49:22.310Z,10.80
2023-03-10T22:51:49.276Z,10.77
2023-03-10T22:54:16.249Z,10.73
2023-03-10T22:56:43.276Z,9.73
2023-03-10T22:59:10.380Z,8.40
2023-03-10T23:01:37.503Z,9.10
2023-03-10T23:04:04.668Z,11.27
2023-03-10T23:06:33.784Z,10.10
2023-03-10T23:09:00.662Z,10.80
2023-03-10T23:11:27.673Z,8.30
2023-03-10T23:13:54.607Z,9.90
2023-03-10T23:16:23.128Z,7.03
2023-03-10T23:18:50.176Z,11.07
2023-03-10T23:21:17.031Z,10.80
2023-03-10T23:23:44.158Z,8.77
2023-03-10T23:26:11.762Z,9.63
2023-03-10T23:28:39.213Z,9.30
2023-03-10T23:31:06.610Z,13.90
2023-03-10T23:33:35.110Z,10.83
2023-03-10T23:36:02.068Z,12.23
2023-03-10T23:38:29.031Z,12.13
2023-03-10T23:40:56.089Z,8.43
2023-03-10T23:43:23.536Z,13.97
2023-03-10T23:45:50.713Z,11.03
2023-03-10T23:48:18.509Z,13.47
2023-03-10T23:50:47.978Z,11.67
2023-03-10T23:53:17.192Z,10.97
2023-03-10T23:55:46.435Z,8.13
2023-03-10T23:58:15.742Z,8.27
